sensor_id;sensor_type;location;lat;lon;timestamp;temperature;humidity
322;DHT22;148;51.480;7.208;2022-08-19T10:54:28;25.30;54.90
322;DHT22;148;51.480;7.208;2022-08-19T10:57:14;25.50;54.80
322;DHT22;148;51.480;7.208;2022-08-19T10:59:41;25.80;55.30
322;DHT22;148;51.480;7.208;2022-08-19T11:02:08;26.00;55.50
322;DHT22;148;51.480;7.208;2022-08-19T11:04:39;26.10;55.60
322;DHT22;148;51.480;7.208;2022-08-19T11:07:05;26.10;55.70
322;DHT22;148;51.480;7.208;2022-08-19T11:09:37;26.20;55.80
322;DHT22;148;51.480;7.208;2022-08-19T11:12:05;26.40;56.00
322;DHT22;148;51.480;7.208;2022-08-19T11:14:31;26.50;56.10
322;DHT22;148;51.480;7.208;2022-08-19T11:16:58;26.50;56.20
322;DHT22;148;51.480;7.208;2022-08-19T11:19:24;26.50;56.30
322;DHT22;148;51.480;7.208;2022-08-19T11:21:51;26.50;56.20
322;DHT22;148;51.480;7.208;2022-08-19T11:24:24;26.50;56.10
322;DHT22;148;51.480;7.208;2022-08-19T11:26:52;26.40;56.00
322;DHT22;148;51.480;7.208;2022-08-19T11:29:20;26.40;56.10
322;DHT22;148;51.480;7.208;2022-08-19T11:31:48;26.20;56.10
322;DHT22;148;51.480;7.208;2022-08-19T11:34:24;26.10;56.20
322;DHT22;148;51.480;7.208;2022-08-19T11:36:51;26.10;56.30
322;DHT22;148;51.480;7.208;2022-08-19T11:39:19;26.20;56.40
322;DHT22;148;51.480;7.208;2022-08-19T11:41:45;26.40;56.50
322;DHT22;148;51.480;7.208;2022-08-19T11:44:11;26.40;56.50
322;DHT22;148;51.480;7.208;2022-08-19T11:46:40;26.50;56.50
322;DHT22;148;51.480;7.208;2022-08-19T11:49:06;26.50;56.70
322;DHT22;148;51.480;7.208;2022-08-19T11:51:35;26.60;56.70
322;DHT22;148;51.480;7.208;2022-08-19T11:54:03;26.70;56.70
322;DHT22;148;51.480;7.208;2022-08-19T11:56:29;26.50;56.70
322;DHT22;148;51.480;7.208;2022-08-19T11:58:55;26.60;57.30
322;DHT22;148;51.480;7.208;2022-08-19T12:01:25;26.50;57.30
322;DHT22;148;51.480;7.208;2022-08-19T12:03:54;26.50;57.60
322;DHT22;148;51.480;7.208;2022-08-19T12:06:31;26.70;57.60
322;DHT22;148;51.480;7.208;2022-08-19T12:09:04;26.80;57.40
322;DHT22;148;51.480;7.208;2022-08-19T12:11:30;26.80;57.10
322;DHT22;148;51.480;7.208;2022-08-19T12:13:56;26.90;57.10
322;DHT22;148;51.480;7.208;2022-08-19T12:16:25;27.00;57.10
322;DHT22;148;51.480;7.208;2022-08-19T12:18:52;27.10;57.20
322;DHT22;148;51.480;7.208;2022-08-19T12:21:24;27.10;57.40
322;DHT22;148;51.480;7.208;2022-08-19T12:23:53;27.00;57.40
322;DHT22;148;51.480;7.208;2022-08-19T12:26:20;26.90;57.70
322;DHT22;148;51.480;7.208;2022-08-19T12:28:45;26.80;57.40
322;DHT22;148;51.480;7.208;2022-08-19T12:31:13;26.90;57.20
322;DHT22;148;51.480;7.208;2022-08-19T12:33:40;27.00;56.80
322;DHT22;148;51.480;7.208;2022-08-19T12:36:08;27.10;56.40
322;DHT22;148;51.480;7.208;2022-08-19T12:38:35;27.10;56.00
322;DHT22;148;51.480;7.208;2022-08-19T12:41:01;27.10;56.00
322;DHT22;148;51.480;7.208;2022-08-19T12:43:32;27.10;56.00
322;DHT22;148;51.480;7.208;2022-08-19T12:45:58;27.10;56.10
322;DHT22;148;51.480;7.208;2022-08-19T12:48:24;27.20;55.30
322;DHT22;148;51.480;7.208;2022-08-19T12:50:49;27.10;55.10
322;DHT22;148;51.480;7.208;2022-08-19T12:53:15;27.10;55.20
322;DHT22;148;51.480;7.208;2022-08-19T12:55:42;27.20;54.90
322;DHT22;148;51.480;7.208;2022-08-19T12:58:10;27.40;54.70
322;DHT22;148;51.480;7.208;2022-08-19T13:00:38;27.60;54.30
322;DHT22;148;51.480;7.208;2022-08-19T13:03:03;27.70;53.70
322;DHT22;148;51.480;7.208;2022-08-19T13:05:31;27.70;53.60
322;DHT22;148;51.480;7.208;2022-08-19T13:07:58;27.80;53.40
322;DHT22;148;51.480;7.208;2022-08-19T13:10:28;27.90;53.20
322;DHT22;148;51.480;7.208;2022-08-19T13:12:54;27.90;52.80
322;DHT22;148;51.480;7.208;2022-08-19T13:15:21;28.00;52.80
322;DHT22;148;51.480;7.208;2022-08-19T13:17:49;28.00;52.70
322;DHT22;148;51.480;7.208;2022-08-19T13:20:17;28.00;52.60
322;DHT22;148;51.480;7.208;2022-08-19T13:22:43;28.10;52.10
322;DHT22;148;51.480;7.208;2022-08-19T13:25:10;28.10;52.60
322;DHT22;148;51.480;7.208;2022-08-19T13:27:36;28.20;52.20
322;DHT22;148;51.480;7.208;2022-08-19T13:30:03;28.30;51.20
322;DHT22;148;51.480;7.208;2022-08-19T13:32:48;28.30;51.10
322;DHT22;148;51.480;7.208;2022-08-19T13:35:32;28.30;52.00
322;DHT22;148;51.480;7.208;2022-08-19T13:37:57;28.40;51.50
322;DHT22;148;51.480;7.208;2022-08-19T13:40:24;28.50;51.30
322;DHT22;148;51.480;7.208;2022-08-19T13:42:53;28.60;50.60
322;DHT22;148;51.480;7.208;2022-08-19T13:45:21;28.50;49.60
322;DHT22;148;51.480;7.208;2022-08-19T13:47:49;28.40;49.90
322;DHT22;148;51.480;7.208;2022-08-19T13:50:18;28.30;50.10
322;DHT22;148;51.480;7.208;2022-08-19T13:52:44;28.40;49.90
322;DHT22;148;51.480;7.208;2022-08-19T13:55:11;28.40;49.10
322;DHT22;148;51.480;7.208;2022-08-19T13:57:37;29.20;47.60
322;DHT22;148;51.480;7.208;2022-08-19T14:00:07;30.10;45.70
322;DHT22;148;51.480;7.208;2022-08-19T14:02:34;30.90;43.40
322;DHT22;148;51.480;7.208;2022-08-19T14:05:00;31.30;42.60
322;DHT22;148;51.480;7.208;2022-08-19T14:07:25;31.10;42.30
322;DHT22;148;51.480;7.208;2022-08-19T14:09:51;31.40;41.80
322;DHT22;148;51.480;7.208;2022-08-19T14:12:21;32.20;40.30
322;DHT22;148;51.480;7.208;2022-08-19T14:14:47;33.20;38.90
322;DHT22;148;51.480;7.208;2022-08-19T14:17:13;34.30;36.70
322;DHT22;148;51.480;7.208;2022-08-19T14:19:39;34.30;35.80
322;DHT22;148;51.480;7.208;2022-08-19T14:22:04;33.90;36.20
322;DHT22;148;51.480;7.208;2022-08-19T14:24:30;33.30;37.30
322;DHT22;148;51.480;7.208;2022-08-19T14:26:57;33.80;37.30
322;DHT22;148;51.480;7.208;2022-08-19T14:29:23;34.90;34.70
322;DHT22;148;51.480;7.208;2022-08-19T14:31:49;35.50;33.50
322;DHT22;148;51.480;7.208;2022-08-19T14:34:15;36.20;32.30
322;DHT22;148;51.480;7.208;2022-08-19T14:36:41;36.50;31.80
322;DHT22;148;51.480;7.208;2022-08-19T14:39:08;36.40;31.50
322;DHT22;148;51.480;7.208;2022-08-19T14:41:40;36.40;32.00
322;DHT22;148;51.480;7.208;2022-08-19T14:44:06;36.50;32.00
322;DHT22;148;51.480;7.208;2022-08-19T14:46:32;36.20;31.80
322;DHT22;148;51.480;7.208;2022-08-19T14:48:57;35.10;33.00
322;DHT22;148;51.480;7.208;2022-08-19T14:51:24;35.20;33.50
322;DHT22;148;51.480;7.208;2022-08-19T14:53:51;36.10;32.50
322;DHT22;148;51.480;7.208;2022-08-19T14:56:21;36.30;32.10
322;DHT22;148;51.480;7.208;2022-08-19T14:58:47;36.50;31.80
322;DHT22;148;51.480;7.208;2022-08-19T15:01:13;36.60;31.10
322;DHT22;148;51.480;7.208;2022-08-19T15:03:39;36.40;31.50
322;DHT22;148;51.480;7.208;2022-08-19T15:06:06;36.40;31.70
322;DHT22;148;51.480;7.208;2022-08-19T15:08:34;36.10;31.70
322;DHT22;148;51.480;7.208;2022-08-19T15:11:02;35.40;32.00
322;DHT22;148;51.480;7.208;2022-08-19T15:13:29;35.00;32.50
322;DHT22;148;51.480;7.208;2022-08-19T18:10:36;26.70;54.10
322;DHT22;148;51.480;7.208;2022-08-19T18:13:03;26.80;54.10
322;DHT22;148;51.480;7.208;2022-08-19T18:15:29;26.90;54.10
322;DHT22;148;51.480;7.208;2022-08-19T18:17:55;27.00;53.80
322;DHT22;148;51.480;7.208;2022-08-19T18:20:21;27.10;53.50
322;DHT22;148;51.480;7.208;2022-08-19T18:22:48;27.30;53.30
322;DHT22;148;51.480;7.208;2022-08-19T18:25:20;27.30;53.10
322;DHT22;148;51.480;7.208;2022-08-19T18:27:50;27.30;53.10
322;DHT22;148;51.480;7.208;2022-08-19T18:30:16;27.30;53.20
322;DHT22;148;51.480;7.208;2022-08-19T18:32:43;27.20;53.30
322;DHT22;148;51.480;7.208;2022-08-19T18:35:15;27.10;53.40
322;DHT22;148;51.480;7.208;2022-08-19T18:37:42;27.10;53.60
322;DHT22;148;51.480;7.208;2022-08-19T18:40:20;27.10;53.70
322;DHT22;148;51.480;7.208;2022-08-19T18:43:05;27.10;53.30
322;DHT22;148;51.480;7.208;2022-08-19T18:45:49;27.00;52.70
322;DHT22;148;51.480;7.208;2022-08-19T18:48:34;26.90;53.10
322;DHT22;148;51.480;7.208;2022-08-19T18:51:19;26.80;53.40
322;DHT22;148;51.480;7.208;2022-08-19T18:53:46;26.80;54.00
322;DHT22;148;51.480;7.208;2022-08-19T18:56:16;26.70;54.40
322;DHT22;148;51.480;7.208;2022-08-19T18:58:43;26.60;55.40
322;DHT22;148;51.480;7.208;2022-08-19T19:01:12;26.50;56.70
322;DHT22;148;51.480;7.208;2022-08-19T19:03:44;26.40;57.60
322;DHT22;148;51.480;7.208;2022-08-19T19:06:26;26.40;57.90
322;DHT22;148;51.480;7.208;2022-08-19T19:08:54;26.40;58.50
322;DHT22;148;51.480;7.208;2022-08-19T19:11:24;26.40;59.30
322;DHT22;148;51.480;7.208;2022-08-19T19:13:51;26.30;60.80
322;DHT22;148;51.480;7.208;2022-08-19T19:16:17;26.30;61.50
322;DHT22;148;51.480;7.208;2022-08-19T19:18:43;26.10;63.00
322;DHT22;148;51.480;7.208;2022-08-19T19:21:10;26.10;63.40
322;DHT22;148;51.480;7.208;2022-08-19T19:23:37;26.10;63.60
322;DHT22;148;51.480;7.208;2022-08-19T19:26:09;26.00;64.40
322;DHT22;148;51.480;7.208;2022-08-19T19:28:36;26.00;64.80
322;DHT22;148;51.480;7.208;2022-08-19T19:31:03;26.00;64.80
322;DHT22;148;51.480;7.208;2022-08-19T19:33:29;26.10;64.90
322;DHT22;148;51.480;7.208;2022-08-19T19:35:55;26.00;65.60
322;DHT22;148;51.480;7.208;2022-08-19T19:38:20;26.00;65.80
322;DHT22;148;51.480;7.208;2022-08-19T19:40:46;25.90;66.60
322;DHT22;148;51.480;7.208;2022-08-19T19:43:12;26.00;66.30
322;DHT22;148;51.480;7.208;2022-08-19T19:45:37;26.00;66.90
322;DHT22;148;51.480;7.208;2022-08-19T19:48:04;25.90;67.40
322;DHT22;148;51.480;7.208;2022-08-19T19:50:30;25.80;68.20
322;DHT22;148;51.480;7.208;2022-08-19T19:52:56;25.80;69.00
322;DHT22;148;51.480;7.208;2022-08-19T19:55:22;25.60;69.50
322;DHT22;148;51.480;7.208;2022-08-19T19:57:51;25.60;69.90
322;DHT22;148;51.480;7.208;2022-08-19T20:00:18;25.50;70.10
322;DHT22;148;51.480;7.208;2022-08-19T20:02:44;25.50;70.30
322;DHT22;148;51.480;7.208;2022-08-19T20:05:11;25.30;70.80
322;DHT22;148;51.480;7.208;2022-08-19T20:07:38;25.20;70.90
322;DHT22;148;51.480;7.208;2022-08-19T20:10:30;25.20;71.40
322;DHT22;148;51.480;7.208;2022-08-19T20:12:57;25.10;71.60
322;DHT22;148;51.480;7.208;2022-08-19T20:15:22;25.00;71.70
322;DHT22;148;51.480;7.208;2022-08-19T20:17:49;25.00;71.70
322;DHT22;148;51.480;7.208;2022-08-19T20:20:16;25.00;71.70
322;DHT22;148;51.480;7.208;2022-08-19T20:22:44;25.10;71.60
322;DHT22;148;51.480;7.208;2022-08-19T20:25:10;25.10;71.40
322;DHT22;148;51.480;7.208;2022-08-19T20:27:37;25.20;71.40
322;DHT22;148;51.480;7.208;2022-08-19T20:30:09;25.20;71.30
322;DHT22;148;51.480;7.208;2022-08-19T20:32:35;25.20;71.10
322;DHT22;148;51.480;7.208;2022-08-19T20:35:01;25.20;71.00
322;DHT22;148;51.480;7.208;2022-08-19T20:37:27;25.20;70.90
322;DHT22;148;51.480;7.208;2022-08-19T20:39:53;25.10;70.80
322;DHT22;148;51.480;7.208;2022-08-19T20:42:18;25.10;71.10
322;DHT22;148;51.480;7.208;2022-08-19T20:44:44;25.00;71.20
322;DHT22;148;51.480;7.208;2022-08-19T20:47:10;24.90;71.50
322;DHT22;148;51.480;7.208;2022-08-19T20:49:36;25.00;71.50
322;DHT22;148;51.480;7.208;2022-08-19T20:52:03;25.00;71.40
322;DHT22;148;51.480;7.208;2022-08-19T20:54:29;25.10;71.20
322;DHT22;148;51.480;7.208;2022-08-19T20:56:55;25.00;71.30
322;DHT22;148;51.480;7.208;2022-08-19T20:59:22;25.00;71.50
322;DHT22;148;51.480;7.208;2022-08-19T21:01:48;24.90;71.70
322;DHT22;148;51.480;7.208;2022-08-19T21:04:17;24.80;71.90
322;DHT22;148;51.480;7.208;2022-08-19T21:06:43;24.80;71.90
322;DHT22;148;51.480;7.208;2022-08-19T21:09:08;24.80;72.00
322;DHT22;148;51.480;7.208;2022-08-19T21:11:34;24.80;72.00
322;DHT22;148;51.480;7.208;2022-08-19T21:14:00;24.70;72.10
322;DHT22;148;51.480;7.208;2022-08-19T21:16:27;24.70;72.00
322;DHT22;148;51.480;7.208;2022-08-19T21:18:53;24.70;71.90
322;DHT22;148;51.480;7.208;2022-08-19T21:21:18;24.70;71.90
322;DHT22;148;51.480;7.208;2022-08-19T21:23:44;24.70;72.00
322;DHT22;148;51.480;7.208;2022-08-19T21:26:10;24.60;72.00
322;DHT22;148;51.480;7.208;2022-08-19T21:28:35;24.50;72.10
322;DHT22;148;51.480;7.208;2022-08-19T21:31:01;24.50;72.00
322;DHT22;148;51.480;7.208;2022-08-19T21:33:28;24.50;71.90
322;DHT22;148;51.480;7.208;2022-08-19T21:35:56;24.60;71.80
322;DHT22;148;51.480;7.208;2022-08-19T21:38:22;24.70;71.90
322;DHT22;148;51.480;7.208;2022-08-19T21:40:47;24.70;71.80
322;DHT22;148;51.480;7.208;2022-08-19T21:43:14;24.90;71.60
322;DHT22;148;51.480;7.208;2022-08-19T21:45:40;24.80;71.60
322;DHT22;148;51.480;7.208;2022-08-19T21:48:05;24.90;71.60
322;DHT22;148;51.480;7.208;2022-08-19T21:50:32;24.90;71.60
322;DHT22;148;51.480;7.208;2022-08-19T21:52:58;24.90;71.60
322;DHT22;148;51.480;7.208;2022-08-19T21:55:27;25.00;71.60
322;DHT22;148;51.480;7.208;2022-08-19T21:57:53;25.00;71.50
322;DHT22;148;51.480;7.208;2022-08-19T22:00:22;25.00;71.30
322;DHT22;148;51.480;7.208;2022-08-19T22:02:48;24.90;71.50
322;DHT22;148;51.480;7.208;2022-08-19T22:05:15;24.90;71.60
322;DHT22;148;51.480;7.208;2022-08-19T22:07:41;24.80;71.70
322;DHT22;148;51.480;7.208;2022-08-19T22:10:08;24.80;71.90
322;DHT22;148;51.480;7.208;2022-08-19T22:12:36;24.90;71.80
322;DHT22;148;51.480;7.208;2022-08-19T22:15:05;24.90;71.90
322;DHT22;148;51.480;7.208;2022-08-19T22:17:34;24.90;71.90
322;DHT22;148;51.480;7.208;2022-08-19T22:20:00;24.90;72.00
322;DHT22;148;51.480;7.208;2022-08-19T22:22:29;24.80;72.10
322;DHT22;148;51.480;7.208;2022-08-19T22:25:04;24.80;72.20
322;DHT22;148;51.480;7.208;2022-08-19T22:27:30;24.70;72.20
322;DHT22;148;51.480;7.208;2022-08-19T22:29:56;24.70;72.10
322;DHT22;148;51.480;7.208;2022-08-19T22:32:22;24.70;72.00
322;DHT22;148;51.480;7.208;2022-08-19T22:34:47;24.60;71.90
322;DHT22;148;51.480;7.208;2022-08-19T22:37:13;24.60;71.80
322;DHT22;148;51.480;7.208;2022-08-19T22:39:39;24.50;71.70
322;DHT22;148;51.480;7.208;2022-08-19T22:42:04;24.40;71.40
322;DHT22;148;51.480;7.208;2022-08-19T22:44:31;24.20;70.30
322;DHT22;148;51.480;7.208;2022-08-19T22:46:56;24.10;68.20
322;DHT22;148;51.480;7.208;2022-08-19T22:49:22;24.00;65.60
322;DHT22;148;51.480;7.208;2022-08-19T22:51:48;24.00;64.20
322;DHT22;148;51.480;7.208;2022-08-19T22:54:32;24.00;63.50
322;DHT22;148;51.480;7.208;2022-08-19T22:56:58;24.00;60.90
322;DHT22;148;51.480;7.208;2022-08-19T22:59:24;23.90;57.80
322;DHT22;148;51.480;7.208;2022-08-19T23:01:50;23.90;55.80
322;DHT22;148;51.480;7.208;2022-08-19T23:04:15;23.90;54.40
322;DHT22;148;51.480;7.208;2022-08-19T23:06:41;23.90;52.30
322;DHT22;148;51.480;7.208;2022-08-19T23:09:08;23.90;49.70
322;DHT22;148;51.480;7.208;2022-08-19T23:11:36;23.90;45.30
322;DHT22;148;51.480;7.208;2022-08-19T23:14:03;23.90;43.50
322;DHT22;148;51.480;7.208;2022-08-19T23:16:30;24.00;42.60
322;DHT22;148;51.480;7.208;2022-08-19T23:18:56;24.00;40.10
322;DHT22;148;51.480;7.208;2022-08-19T23:21:21;23.90;35.00
322;DHT22;148;51.480;7.208;2022-08-19T23:23:51;23.70;30.70
322;DHT22;148;51.480;7.208;2022-08-19T23:26:18;23.50;25.90
322;DHT22;148;51.480;7.208;2022-08-19T23:28:44;23.20;23.40
322;DHT22;148;51.480;7.208;2022-08-19T23:31:28;23.10;21.20
322;DHT22;148;51.480;7.208;2022-08-19T23:33:54;23.00;18.50
322;DHT22;148;51.480;7.208;2022-08-19T23:36:20;22.90;15.40
322;DHT22;148;51.480;7.208;2022-08-19T23:38:48;22.80;11.60
322;DHT22;148;51.480;7.208;2022-08-19T23:41:15;22.70;8.80
322;DHT22;148;51.480;7.208;2022-08-19T23:43:41;22.70;7.50
322;DHT22;148;51.480;7.208;2022-08-19T23:46:09;22.70;6.60
322;DHT22;148;51.480;7.208;2022-08-19T23:48:36;22.70;5.70
322;DHT22;148;51.480;7.208;2022-08-19T23:51:05;22.70;3.00
322;DHT22;148;51.480;7.208;2022-08-19T23:53:31;22.70;2.30
322;DHT22;148;51.480;7.208;2022-08-19T23:55:57;22.70;2.00
322;DHT22;148;51.480;7.208;2022-08-19T23:58:23;22.70;2.20
